Sligo Airport - TAF
(Terminal Area Forecast)

Issued at 11:36 UTC on Tue. 28-Mar-17

--- METARS(SA) ---

METAR EISG(SLIGO) 281100Z 12010KT 4900 BR NSC 10/07 Q1012 =

--- TAFS() ---

TAF EISG(SLIGO) 281100Z 2812/2821 13010KT 7000 SCT013 TEMPO

2812/2814 5000 BR BKN009 TEMPO 2814/2817 5000 SHRA SCT018CB BECMG 2815/2818

21010KT BKN020 BECMG 2818/2821 14007KT =

--- SIGMETS(WS) ---

IE - No VALID SIGMETS/Warnings FOR THIS AREA

--- SIGMETS Volcanic(WV) ---

IE - No VALID SIGMETS/Warnings FOR THIS AREA

--- SIGMETS(WS) ---

UK - No VALID SIGMETS/Warnings FOR THIS AREA

Sligo Airport - METARs

Latest METARs for Sligo and Donegal Airports - updated every 30 mins